createdAt,value
2018-08-28T00:01:50.025Z,60.40
2018-08-28T00:05:14.418Z,60.33
2018-08-28T00:08:38.821Z,60.43
2018-08-28T00:12:03.273Z,60.58
2018-08-28T00:15:27.650Z,60.68
2018-08-28T00:18:52.195Z,61.81
2018-08-28T00:22:16.573Z,61.72
2018-08-28T00:25:41.085Z,62.85
2018-08-28T00:29:05.496Z,61.92
2018-08-28T00:32:29.902Z,62.38
2018-08-28T00:35:54.270Z,62.62
2018-08-28T00:39:18.645Z,62.37
2018-08-28T00:42:43.038Z,61.96
2018-08-28T00:46:07.457Z,62.12
2018-08-28T00:49:31.846Z,62.09
2018-08-28T00:52:56.261Z,62.90
2018-08-28T00:56:20.656Z,63.52
2018-08-28T00:59:45.039Z,63.85
2018-08-28T01:03:09.468Z,62.95
2018-08-28T01:06:33.870Z,63.67
2018-08-28T01:09:58.233Z,63.27
2018-08-28T01:13:22.633Z,63.60
2018-08-28T01:16:47.044Z,64.22
2018-08-28T01:20:11.510Z,62.99
2018-08-28T01:23:35.887Z,64.74
2018-08-28T01:27:00.265Z,63.85
2018-08-28T01:30:29.996Z,63.79
2018-08-28T01:33:54.393Z,64.05
2018-08-28T01:37:18.764Z,63.72
2018-08-28T01:40:43.145Z,63.48
2018-08-28T01:44:07.526Z,63.65
2018-08-28T01:47:31.916Z,64.67
2018-08-28T01:50:56.460Z,64.27
2018-08-28T01:54:20.829Z,64.26
2018-08-28T01:57:45.224Z,64.79
2018-08-28T02:01:09.695Z,64.86
2018-08-28T02:04:34.089Z,63.91
2018-08-28T02:07:58.481Z,64.99
2018-08-28T02:11:22.874Z,64.47
2018-08-28T02:14:47.265Z,64.86
2018-08-28T02:18:17.817Z,64.86
2018-08-28T02:21:42.188Z,64.30
2018-08-28T02:25:08.087Z,64.97
2018-08-28T02:28:32.489Z,64.62
2018-08-28T02:31:56.964Z,63.90
2018-08-28T02:35:21.402Z,65.26
2018-08-28T02:38:45.877Z,65.07
2018-08-28T02:42:10.281Z,64.98
2018-08-28T02:45:34.724Z,65.54
2018-08-28T02:48:59.157Z,65.29
2018-08-28T02:52:23.594Z,66.06
2018-08-28T02:55:47.993Z,66.55
2018-08-28T02:59:12.717Z,66.73
2018-08-28T03:02:37.154Z,67.21
2018-08-28T03:06:01.610Z,66.75
2018-08-28T03:09:26.018Z,66.55
2018-08-28T03:12:50.430Z,67.25
2018-08-28T03:16:14.853Z,67.32
2018-08-28T03:19:39.285Z,66.78
2018-08-28T03:23:03.677Z,66.81
2018-08-28T03:26:28.101Z,67.38
2018-08-28T03:29:52.542Z,67.93
2018-08-28T03:33:16.924Z,68.10
2018-08-28T03:36:41.348Z,68.83
2018-08-28T03:40:06.545Z,69.60
2018-08-28T03:43:30.980Z,69.69
2018-08-28T03:46:55.417Z,68.93
2018-08-28T03:50:19.958Z,69.57
2018-08-28T03:53:44.332Z,69.89
2018-08-28T03:57:08.789Z,70.33
2018-08-28T04:00:33.184Z,69.94
2018-08-28T04:03:57.639Z,70.26
2018-08-28T04:07:22.054Z,69.46
2018-08-28T04:10:46.485Z,69.98
2018-08-28T04:14:10.927Z,70.02
2018-08-28T04:17:47.603Z,70.73
2018-08-28T04:21:12.029Z,70.61
2018-08-28T04:24:36.444Z,70.90
2018-08-28T04:28:00.925Z,70.46
2018-08-28T04:31:25.563Z,70.87
2018-08-28T04:34:50.109Z,70.52
2018-08-28T04:38:14.654Z,70.83
2018-08-28T04:41:39.113Z,71.86
2018-08-28T04:45:03.618Z,72.50
2018-08-28T04:48:29.443Z,72.23
2018-08-28T04:51:53.893Z,72.92
2018-08-28T04:55:18.295Z,71.79
2018-08-28T04:58:42.684Z,72.12
2018-08-28T05:02:07.243Z,73.53
2018-08-28T05:05:31.681Z,72.79
2018-08-28T05:08:56.266Z,72.73
2018-08-28T05:12:23.078Z,72.81
2018-08-28T05:15:47.552Z,73.16
2018-08-28T05:19:12.001Z,72.70
2018-08-28T05:22:36.484Z,72.99
2018-08-28T05:26:01.149Z,72.14
2018-08-28T05:29:25.604Z,72.60
2018-08-28T05:32:49.990Z,72.39
2018-08-28T05:36:14.438Z,72.43
2018-08-28T05:39:38.931Z,73.34
2018-08-28T05:43:03.516Z,72.77
2018-08-28T05:46:28.121Z,72.59
2018-08-28T05:49:52.595Z,72.47
2018-08-28T05:53:17.119Z,72.54
2018-08-28T05:56:41.551Z,72.83
2018-08-28T06:00:06.823Z,71.97
2018-08-28T06:03:31.368Z,71.76
2018-08-28T06:06:55.773Z,72.66
2018-08-28T06:10:20.291Z,70.77
2018-08-28T06:13:44.773Z,71.52
2018-08-28T06:17:09.388Z,71.11
2018-08-28T06:20:33.849Z,71.25
2018-08-28T06:23:58.292Z,71.75
2018-08-28T06:27:22.724Z,70.41
2018-08-28T06:30:47.186Z,71.84
2018-08-28T06:34:11.700Z,70.58
2018-08-28T06:37:36.130Z,70.42
2018-08-28T06:41:00.588Z,70.61
2018-08-28T06:44:25.075Z,70.12
2018-08-28T06:47:49.529Z,70.57
2018-08-28T06:51:13.968Z,70.16
2018-08-28T06:54:38.416Z,69.31
2018-08-28T06:58:02.826Z,69.17
2018-08-28T07:01:27.218Z,68.89
2018-08-28T07:04:51.667Z,68.44
2018-08-28T07:08:16.083Z,68.03
2018-08-28T07:11:40.537Z,68.28
2018-08-28T07:15:05.021Z,67.61
2018-08-28T07:18:29.433Z,67.62
2018-08-28T07:21:53.897Z,66.59
2018-08-28T07:25:18.382Z,66.22
2018-08-28T07:28:42.852Z,66.16
2018-08-28T07:32:07.389Z,65.78
2018-08-28T07:35:31.804Z,65.07
2018-08-28T07:38:56.245Z,65.40
2018-08-28T07:42:20.706Z,65.59
2018-08-28T07:45:45.123Z,65.41
2018-08-28T07:49:09.677Z,64.74
2018-08-28T07:52:34.187Z,64.07
2018-08-28T07:55:58.612Z,64.70
2018-08-28T07:59:23.027Z,64.42
2018-08-28T08:02:47.468Z,64.48
2018-08-28T08:06:11.865Z,63.67
2018-08-28T08:09:36.301Z,63.23
2018-08-28T08:13:00.764Z,62.84
2018-08-28T08:16:25.196Z,62.23
2018-08-28T08:19:49.625Z,61.74
2018-08-28T08:23:14.093Z,60.35
2018-08-28T08:26:38.567Z,60.53
2018-08-28T08:30:03.061Z,59.07
2018-08-28T08:33:27.492Z,59.06
2018-08-28T08:36:51.979Z,58.38
2018-08-28T08:40:16.418Z,58.75
2018-08-28T08:43:40.846Z,58.77
2018-08-28T08:47:05.286Z,56.68
2018-08-28T08:50:29.700Z,56.58
2018-08-28T08:53:54.138Z,55.00
2018-08-28T08:57:18.723Z,54.61
2018-08-28T09:00:43.141Z,55.63
2018-08-28T09:04:07.893Z,54.50
2018-08-28T09:07:32.809Z,52.05
2018-08-28T09:10:57.327Z,51.88
2018-08-28T09:14:21.803Z,51.15
2018-08-28T09:17:46.228Z,51.97
2018-08-28T09:21:10.644Z,49.75
2018-08-28T09:24:35.092Z,48.25
2018-08-28T09:27:59.503Z,48.02
2018-08-28T09:31:24.045Z,45.92
2018-08-28T09:34:48.478Z,47.73
2018-08-28T09:38:12.911Z,46.05
2018-08-28T09:41:37.750Z,46.76
2018-08-28T09:45:02.194Z,47.10
2018-08-28T09:48:26.736Z,45.51
2018-08-28T09:51:51.085Z,47.24
2018-08-28T09:55:15.571Z,44.51
2018-08-28T09:58:40.446Z,44.56
2018-08-28T10:02:04.895Z,43.38
2018-08-28T10:05:29.344Z,42.86
2018-08-28T10:08:53.823Z,40.69
2018-08-28T10:12:18.231Z,40.65
2018-08-28T10:15:42.653Z,41.25
2018-08-28T10:19:07.448Z,41.41
2018-08-28T10:22:31.922Z,40.18
2018-08-28T10:25:56.387Z,42.40
2018-08-28T10:29:20.846Z,41.44
2018-08-28T10:32:45.244Z,37.09
2018-08-28T10:36:09.644Z,38.29
2018-08-28T10:39:34.141Z,36.84
2018-08-28T10:42:58.587Z,35.18
2018-08-28T10:46:23.109Z,35.57
2018-08-28T10:49:47.618Z,35.46
2018-08-28T10:53:12.059Z,36.48
2018-08-28T10:56:36.560Z,38.69
2018-08-28T11:00:00.981Z,39.08
2018-08-28T11:03:25.424Z,38.58
2018-08-28T11:06:49.860Z,37.31
2018-08-28T11:10:14.293Z,34.04
2018-08-28T11:13:38.741Z,34.07
2018-08-28T11:17:03.545Z,35.67
2018-08-28T11:20:28.050Z,36.63
2018-08-28T11:23:52.541Z,36.56
2018-08-28T11:27:17.132Z,38.28
2018-08-28T11:30:41.672Z,36.95
2018-08-28T11:34:06.119Z,36.51
2018-08-28T11:37:30.574Z,38.87
2018-08-28T11:40:54.996Z,38.28
2018-08-28T11:44:19.445Z,37.36
2018-08-28T11:47:43.864Z,38.18
2018-08-28T11:51:08.321Z,35.49
2018-08-28T11:54:32.811Z,36.72
2018-08-28T11:57:57.306Z,35.76
2018-08-28T12:01:21.768Z,34.60
2018-08-28T12:04:46.285Z,34.67
2018-08-28T12:08:10.694Z,34.77
2018-08-28T12:11:35.093Z,32.37
2018-08-28T12:14:59.556Z,29.57
2018-08-28T12:18:23.953Z,31.89
2018-08-28T12:21:49.867Z,32.92
2018-08-28T12:25:14.316Z,34.25
2018-08-28T12:28:38.718Z,34.79
2018-08-28T12:32:03.184Z,36.76
2018-08-28T12:35:27.609Z,35.67
2018-08-28T12:38:52.024Z,34.40
2018-08-28T12:42:16.537Z,32.48
2018-08-28T12:45:40.974Z,29.10
2018-08-28T12:49:05.496Z,30.29
2018-08-28T12:52:30.109Z,31.11
2018-08-28T12:55:54.568Z,31.63
2018-08-28T12:59:18.990Z,27.80
2018-08-28T13:02:43.468Z,26.18
2018-08-28T13:06:08.004Z,24.14
2018-08-28T13:09:32.434Z,23.28
2018-08-28T13:12:56.856Z,19.75
2018-08-28T13:16:21.281Z,21.30
2018-08-28T13:19:45.701Z,20.35
2018-08-28T13:23:10.138Z,20.88
2018-08-28T13:26:34.617Z,19.88
2018-08-28T13:29:59.066Z,18.76
2018-08-28T13:33:23.530Z,19.62
2018-08-28T13:36:47.951Z,19.62
2018-08-28T13:40:12.575Z,18.55
2018-08-28T13:43:36.908Z,18.34
2018-08-28T13:47:01.452Z,18.23
2018-08-28T13:50:25.852Z,20.11
2018-08-28T13:53:50.334Z,20.41
2018-08-28T13:57:14.726Z,19.32
2018-08-28T14:00:39.197Z,20.60
2018-08-28T14:04:03.729Z,20.49
2018-08-28T14:07:31.371Z,20.55
2018-08-28T14:10:55.849Z,20.10
2018-08-28T14:14:20.316Z,20.61
2018-08-28T14:17:44.769Z,21.28
2018-08-28T14:21:09.197Z,20.32
2018-08-28T14:24:33.633Z,20.73
2018-08-28T14:27:58.034Z,20.20
2018-08-28T14:31:22.444Z,19.86
2018-08-28T14:34:46.902Z,21.24
2018-08-28T14:38:11.343Z,21.88
2018-08-28T14:41:35.850Z,22.91
2018-08-28T14:45:07.710Z,22.15
2018-08-28T14:48:32.159Z,21.50
2018-08-28T14:51:56.644Z,20.61
2018-08-28T14:55:21.064Z,21.80
2018-08-28T14:58:45.496Z,22.11
2018-08-28T15:02:09.947Z,21.25
2018-08-28T15:05:34.367Z,23.10
2018-08-28T15:08:58.750Z,20.46
2018-08-28T15:12:23.187Z,18.44
2018-08-28T15:15:47.995Z,19.06
2018-08-28T15:19:13.456Z,19.49
2018-08-28T15:22:38.292Z,19.60
2018-08-28T15:26:03.073Z,20.99
2018-08-28T15:29:27.864Z,19.87
2018-08-28T15:32:52.534Z,20.61
2018-08-28T15:36:17.138Z,18.80
2018-08-28T15:39:41.590Z,18.80
2018-08-28T15:43:06.250Z,18.19
2018-08-28T15:46:30.583Z,18.47
2018-08-28T15:49:55.016Z,17.88
2018-08-28T15:53:19.444Z,17.63
2018-08-28T15:56:43.870Z,18.49
2018-08-28T16:00:08.286Z,18.84
2018-08-28T16:03:32.702Z,18.98
2018-08-28T16:06:57.144Z,17.94
2018-08-28T16:10:21.631Z,20.03
2018-08-28T16:13:46.032Z,18.02
2018-08-28T16:17:10.456Z,19.46
2018-08-28T16:20:34.937Z,20.00
2018-08-28T16:23:59.336Z,21.62
2018-08-28T16:27:23.805Z,20.56
2018-08-28T16:30:48.288Z,22.45
2018-08-28T16:34:12.715Z,22.59
2018-08-28T16:37:37.322Z,24.54
2018-08-28T16:41:01.759Z,24.84
2018-08-28T16:44:26.206Z,26.37
2018-08-28T16:47:50.610Z,26.75
2018-08-28T16:51:15.104Z,26.82
2018-08-28T16:54:39.578Z,27.27
2018-08-28T16:58:03.980Z,27.95
2018-08-28T17:01:28.485Z,28.64
2018-08-28T17:04:52.904Z,29.23
2018-08-28T17:08:17.328Z,29.52
2018-08-28T17:11:41.834Z,29.40
2018-08-28T17:15:06.396Z,29.91
2018-08-28T17:18:31.044Z,31.34
2018-08-28T17:21:55.501Z,35.10
2018-08-28T17:25:19.968Z,35.27
2018-08-28T17:28:44.397Z,35.68
2018-08-28T17:32:08.826Z,35.61
2018-08-28T17:35:33.240Z,36.53
2018-08-28T17:38:57.639Z,36.86
2018-08-28T17:42:22.212Z,38.17
2018-08-28T17:45:46.658Z,37.83
2018-08-28T17:49:11.169Z,37.99
2018-08-28T17:52:35.755Z,38.13
2018-08-28T17:56:00.197Z,38.93
2018-08-28T17:59:24.638Z,38.90
2018-08-28T18:02:49.131Z,40.26
2018-08-28T18:06:13.553Z,40.06
2018-08-28T18:09:38.047Z,41.01
2018-08-28T18:13:02.567Z,42.34
2018-08-28T18:16:27.103Z,42.19
2018-08-28T18:19:51.494Z,44.14
2018-08-28T18:23:15.920Z,44.22
2018-08-28T18:26:40.321Z,45.03
2018-08-28T18:30:04.748Z,46.18
2018-08-28T18:33:29.305Z,46.29
2018-08-28T18:36:53.747Z,45.76
2018-08-28T18:40:18.185Z,47.20
2018-08-28T18:43:42.648Z,47.50
2018-08-28T18:47:07.177Z,48.03
2018-08-28T18:50:31.622Z,49.08
2018-08-28T18:53:56.961Z,48.27
2018-08-28T18:57:21.527Z,47.88
2018-08-28T19:00:45.988Z,48.63
2018-08-28T19:04:10.532Z,48.61
2018-08-28T19:07:35.045Z,49.64
2018-08-28T19:10:59.564Z,51.08
2018-08-28T19:14:24.106Z,49.96
2018-08-28T19:17:48.581Z,51.14
2018-08-28T19:21:12.971Z,50.96
2018-08-28T19:24:37.663Z,52.07
2018-08-28T19:28:02.107Z,51.98
2018-08-28T19:31:26.590Z,52.97
2018-08-28T19:34:52.116Z,52.97
2018-08-28T19:38:17.249Z,53.70
2018-08-28T19:41:43.684Z,53.20
2018-08-28T19:45:08.773Z,54.51
2018-08-28T19:48:33.800Z,53.32
2018-08-28T19:51:58.252Z,53.41
2018-08-28T19:55:23.513Z,55.11
2018-08-28T19:58:48.315Z,54.20
2018-08-28T20:02:13.033Z,56.29
2018-08-28T20:05:37.986Z,56.05
2018-08-28T20:09:04.181Z,56.68
2018-08-28T20:12:28.585Z,55.83
2018-08-28T20:15:53.062Z,56.65
2018-08-28T20:19:17.511Z,56.46
2018-08-28T20:22:41.911Z,56.56
2018-08-28T20:26:06.751Z,57.32
2018-08-28T20:29:31.140Z,57.81
2018-08-28T20:32:55.540Z,58.23
2018-08-28T20:36:19.993Z,58.46
2018-08-28T20:39:44.392Z,58.57
2018-08-28T20:43:08.845Z,59.05
2018-08-28T20:46:33.315Z,58.83
2018-08-28T20:49:57.833Z,58.50
2018-08-28T20:53:22.257Z,58.37
2018-08-28T20:56:46.707Z,58.35
2018-08-28T21:00:11.130Z,57.24
2018-08-28T21:03:35.520Z,57.78
2018-08-28T21:07:00.078Z,57.62
2018-08-28T21:10:24.461Z,57.46
2018-08-28T21:13:48.874Z,57.76
2018-08-28T21:17:13.267Z,57.50
2018-08-28T21:20:37.681Z,57.76
2018-08-28T21:24:02.057Z,57.26
2018-08-28T21:27:26.592Z,57.27
2018-08-28T21:30:51.205Z,57.50
2018-08-28T21:34:15.628Z,57.88
2018-08-28T21:37:40.105Z,57.79
2018-08-28T21:41:04.599Z,57.95
2018-08-28T21:44:29.039Z,57.22
2018-08-28T21:47:53.552Z,57.05
2018-08-28T21:51:17.995Z,57.91
2018-08-28T21:54:42.455Z,58.09
2018-08-28T21:58:06.934Z,57.42
2018-08-28T22:01:31.384Z,57.05
2018-08-28T22:04:55.805Z,57.09
2018-08-28T22:08:20.275Z,55.95
2018-08-28T22:11:44.730Z,56.77
2018-08-28T22:15:13.924Z,56.44
2018-08-28T22:18:38.347Z,57.08
2018-08-28T22:22:02.824Z,56.84
2018-08-28T22:25:27.241Z,56.59
2018-08-28T22:28:51.682Z,57.94
2018-08-28T22:32:16.171Z,58.04
2018-08-28T22:35:40.595Z,58.45
2018-08-28T22:39:05.959Z,58.35
2018-08-28T22:42:30.467Z,58.52
2018-08-28T22:45:54.883Z,57.37
2018-08-28T22:49:19.299Z,59.00
2018-08-28T22:52:43.728Z,58.92
2018-08-28T22:56:08.227Z,60.43
2018-08-28T22:59:32.654Z,61.13
2018-08-28T23:02:57.083Z,61.90
2018-08-28T23:06:21.516Z,60.98
2018-08-28T23:09:45.976Z,61.90
2018-08-28T23:13:10.429Z,61.78
2018-08-28T23:16:34.903Z,62.86
2018-08-28T23:19:59.289Z,63.01
2018-08-28T23:23:23.725Z,62.55
2018-08-28T23:26:48.191Z,62.58
2018-08-28T23:30:12.587Z,62.72
2018-08-28T23:33:37.019Z,62.07
2018-08-28T23:37:01.465Z,62.72
2018-08-28T23:40:25.916Z,61.87
2018-08-28T23:43:50.339Z,61.89
2018-08-28T23:47:14.779Z,62.22
2018-08-28T23:50:39.271Z,62.00
2018-08-28T23:54:03.774Z,61.83
2018-08-28T23:57:28.203Z,61.65
